Time;durP1;ratioP1;P1;durP2;ratioP2;P2;SDS_P1;SDS_P2;PMS_P1;PMS_P2;Temp;Humidity;BMP_temperature;BMP_pressure;BME280_temperature;BME280_humidity;BME280_pressure;Samples;Min_cycle;Max_cycle;Signal;HPM_P1;HPM_P2
2021/07/14 00:02:14;;;;;;;0.87;0.40;;;23.50;59.40;;;;;;5014004;28;20396;-64
2021/07/14 00:04:40;;;;;;;1.23;0.47;;;23.50;59.40;;;;;;5014972;28;20393;-65
2021/07/14 00:07:06;;;;;;;0.90;0.50;;;23.50;59.40;;;;;;5015016;28;20396;-64
2021/07/14 00:09:32;;;;;;;0.90;0.40;;;23.50;59.40;;;;;;5013532;28;20412;-65
2021/07/14 00:12:01;;;;;;;1.17;0.40;;;23.50;59.40;;;;;;5014905;28;20405;-64
2021/07/14 00:22:31;;;;;;;0.93;0.50;;;23.50;59.30;;;;;;5014581;28;21007;-64
2021/07/14 00:24:57;;;;;;;1.45;0.40;;;23.40;59.30;;;;;;5014604;28;20479;-65
2021/07/14 00:27:24;;;;;;;1.10;0.50;;;23.50;59.40;;;;;;5014553;28;20393;-64
2021/07/14 00:29:55;;;;;;;1.08;0.50;;;23.50;59.40;;;;;;5012992;28;20401;-66
2021/07/14 00:32:22;;;;;;;1.65;0.50;;;23.40;59.30;;;;;;5013860;28;20862;-64
2021/07/14 00:34:47;;;;;;;0.90;0.40;;;23.50;59.40;;;;;;5014240;28;20491;-65
2021/07/14 00:37:14;;;;;;;1.20;0.30;;;23.40;59.30;;;;;;5014323;28;20471;-65
2021/07/14 00:39:43;;;;;;;1.05;0.40;;;23.40;59.40;;;;;;5012952;28;20419;-65
2021/07/14 00:42:10;;;;;;;1.00;0.40;;;23.40;59.30;;;;;;5013754;28;20401;-64
2021/07/14 00:44:36;;;;;;;1.02;0.40;;;23.40;59.40;;;;;;5014285;28;20479;-65
2021/07/14 00:47:04;;;;;;;0.80;0.40;;;23.40;59.30;;;;;;5014332;28;20504;-65
2021/07/14 00:49:31;;;;;;;0.60;0.35;;;23.40;59.30;;;;;;5014150;28;20411;-64
2021/07/14 00:51:57;;;;;;;0.88;0.47;;;23.40;59.40;;;;;;5014178;28;20535;-64
2021/07/14 00:54:23;;;;;;;0.90;0.50;;;23.40;59.40;;;;;;5013497;28;20507;-65
2021/07/14 00:56:48;;;;;;;1.77;0.50;;;23.40;59.40;;;;;;5012701;28;20877;-64
2021/07/14 00:59:14;;;;;;;0.93;0.45;;;23.40;59.40;;;;;;5014099;28;20393;-64
2021/07/14 01:01:43;;;;;;;0.90;0.40;;;23.40;59.40;;;;;;5013971;28;20431;-65
2021/07/14 01:04:23;;;;;;;0.90;0.38;;;23.40;59.40;;;;;;5013730;28;20956;-65
2021/07/14 01:07:15;;;;;;;1.05;0.50;;;23.40;59.40;;;;;;5013640;28;20435;-64
2021/07/14 01:09:47;;;;;;;0.88;0.40;;;23.40;59.40;;;;;;5012311;28;20396;-64
2021/07/14 01:12:20;;;;;;;1.30;0.40;;;23.40;59.40;;;;;;5013078;28;20869;-65
2021/07/14 01:15:08;;;;;;;0.93;0.40;;;23.40;59.40;;;;;;5012271;28;20908;-65
2021/07/14 01:17:37;;;;;;;0.90;0.40;;;23.30;59.40;;;;;;5013044;28;20389;-64
2021/07/14 01:20:18;;;;;;;1.00;0.50;;;23.40;59.50;;;;;;5012180;28;20396;-64
2021/07/14 01:22:54;;;;;;;0.80;0.40;;;23.40;59.40;;;;;;5012233;28;20403;-65
2021/07/14 01:25:32;;;;;;;0.85;0.38;;;23.40;59.40;;;;;;5013378;28;20773;-64
2021/07/14 01:27:59;;;;;;;1.08;0.40;;;23.30;59.40;;;;;;5013504;28;20450;-64
2021/07/14 01:30:25;;;;;;;1.00;0.32;;;23.30;59.30;;;;;;5013005;28;20871;-64
2021/07/14 01:32:53;;;;;;;1.10;0.50;;;23.30;59.40;;;;;;5013078;28;20409;-65
2021/07/14 01:35:24;;;;;;;1.10;0.50;;;23.30;59.40;;;;;;5012054;28;20405;-65
2021/07/14 01:37:50;;;;;;;0.90;0.43;;;23.30;59.40;;;;;;5013221;28;20385;-64
2021/07/14 01:40:18;;;;;;;1.20;0.50;;;23.30;59.40;;;;;;5012452;28;20413;-65
2021/07/14 01:42:54;;;;;;;1.10;0.40;;;23.30;59.40;;;;;;5013164;28;20392;-65
2021/07/14 01:45:20;;;;;;;1.20;0.40;;;23.30;59.40;;;;;;5013134;28;20439;-65
2021/07/14 01:47:49;;;;;;;0.93;0.50;;;23.30;59.40;;;;;;5013069;28;20451;-65
2021/07/14 01:50:17;;;;;;;0.90;0.40;;;23.30;59.40;;;;;;5012491;28;20476;-65
2021/07/14 01:52:44;;;;;;;1.00;0.40;;;23.30;59.40;;;;;;5012877;28;20796;-65
2021/07/14 01:55:11;;;;;;;0.82;0.40;;;23.30;59.40;;;;;;5012892;28;20443;-64
2021/07/14 01:57:39;;;;;;;0.85;0.40;;;23.30;59.40;;;;;;5013010;28;20388;-65
2021/07/14 02:00:07;;;;;;;1.08;0.50;;;23.30;59.30;;;;;;5012835;28;20401;-64
2021/07/14 02:02:36;;;;;;;0.80;0.40;;;23.30;59.90;;;;;;5012523;28;20389;-64
2021/07/14 02:05:04;;;;;;;1.02;0.30;;;23.30;59.40;;;;;;5012776;28;20424;-64
2021/07/14 02:07:32;;;;;;;1.17;0.50;;;23.30;59.40;;;;;;5012611;28;20907;-64
2021/07/14 02:09:57;;;;;;;0.90;0.40;;;23.30;59.40;;;;;;5012605;28;20384;-65
2021/07/14 02:12:29;;;;;;;0.87;0.43;;;23.30;59.40;;;;;;5011921;28;20447;-64
2021/07/14 02:15:01;;;;;;;0.77;0.30;;;23.30;59.40;;;;;;5012620;28;20393;-65
2021/07/14 02:17:32;;;;;;;1.10;0.40;;;23.20;59.30;;;;;;5011225;28;20451;-65
2021/07/14 02:20:09;;;;;;;0.68;0.40;;;23.30;59.50;;;;;;5011641;28;20791;-64
2021/07/14 02:22:34;;;;;;;1.05;0.40;;;23.20;59.40;;;;;;5012151;28;20750;-65
2021/07/14 02:25:01;;;;;;;1.02;0.45;;;23.30;59.40;;;;;;5010893;28;20397;-65
2021/07/14 02:27:26;;;;;;;0.77;0.40;;;23.20;59.30;;;;;;5010809;28;20444;-65
2021/07/14 02:29:52;;;;;;;0.87;0.47;;;23.20;59.40;;;;;;5012330;28;20440;-64
2021/07/14 02:32:20;;;;;;;0.77;0.43;;;23.20;59.30;;;;;;5011260;28;20524;-64
2021/07/14 02:34:49;;;;;;;0.85;0.40;;;23.20;59.40;;;;;;5010434;28;20409;-64
2021/07/14 02:37:24;;;;;;;1.08;0.43;;;23.20;59.30;;;;;;5010806;28;20399;-64
2021/07/14 02:39:52;;;;;;;0.80;0.40;;;23.20;59.30;;;;;;5011743;28;20452;-64
2021/07/14 02:42:28;;;;;;;0.93;0.38;;;23.20;59.30;;;;;;5010401;28;20427;-64
2021/07/14 02:44:54;;;;;;;1.10;0.60;;;23.20;59.30;;;;;;5012111;28;20424;-64
2021/07/14 02:47:21;;;;;;;1.27;0.40;;;23.20;59.30;;;;;;5011821;28;20522;-65
2021/07/14 02:49:48;;;;;;;0.63;0.32;;;23.30;59.30;;;;;;5012086;28;20396;-64
2021/07/14 02:52:14;;;;;;;1.23;0.40;;;23.20;59.30;;;;;;5010080;28;20927;-64
2021/07/14 02:54:43;;;;;;;0.75;0.40;;;23.20;59.20;;;;;;5012119;28;20413;-64
2021/07/14 02:57:13;;;;;;;1.10;0.43;;;23.20;59.30;;;;;;5010534;28;20424;-64
2021/07/14 02:59:41;;;;;;;0.68;0.30;;;23.20;59.20;;;;;;5011945;28;20450;-64
2021/07/14 03:02:09;;;;;;;0.50;0.30;;;23.20;59.30;;;;;;5011622;28;20404;-64
2021/07/14 03:04:38;;;;;;;0.90;0.50;;;23.20;59.20;;;;;;5011588;28;20412;-65
2021/07/14 03:07:08;;;;;;;1.27;0.50;;;23.20;59.20;;;;;;5011910;28;20393;-64
2021/07/14 03:09:37;;;;;;;1.33;0.40;;;23.20;59.20;;;;;;5011753;28;20393;-65
2021/07/14 03:12:15;;;;;;;2.00;0.50;;;23.20;59.40;;;;;;5012039;28;20385;-64
2021/07/14 03:14:46;;;;;;;2.20;0.50;;;23.30;60.20;;;;;;5011676;28;20397;-64
2021/07/14 03:17:14;;;;;;;1.60;0.60;;;23.30;60.30;;;;;;5011707;28;20450;-65
2021/07/14 03:19:41;;;;;;;1.52;0.50;;;23.30;60.50;;;;;;5010653;28;20483;-65
2021/07/14 03:22:08;;;;;;;0.93;0.50;;;23.30;60.50;;;;;;5012172;28;20395;-65
2021/07/14 03:24:35;;;;;;;1.60;0.50;;;23.40;61.50;;;;;;5011588;28;20810;-65
2021/07/14 03:27:06;;;;;;;2.20;0.50;;;23.40;61.30;;;;;;5011816;28;20395;-64
2021/07/14 03:29:33;;;;;;;0.80;0.40;;;23.50;61.20;;;;;;5007034;28;20449;-64
2021/07/14 03:32:01;;;;;;;1.65;0.45;;;23.50;60.80;;;;;;5003704;28;20389;-64
2021/07/14 03:34:26;;;;;;;1.10;0.50;;;23.50;61.00;;;;;;5001858;28;20922;-64
2021/07/14 03:36:53;;;;;;;1.17;0.30;;;23.50;61.00;;;;;;5006420;28;20591;-65
2021/07/14 03:39:20;;;;;;;1.80;0.57;;;23.50;60.90;;;;;;5020241;28;20407;-64
2021/07/14 03:41:48;;;;;;;1.70;0.50;;;23.50;61.20;;;;;;5004282;28;20396;-65
2021/07/14 03:44:15;;;;;;;3.45;0.70;;;23.50;61.00;;;;;;5003218;28;20392;-65
2021/07/14 03:46:43;;;;;;;2.17;0.43;;;23.50;61.70;;;;;;5005484;28;20391;-64
2021/07/14 03:49:11;;;;;;;1.52;0.40;;;23.60;61.00;;;;;;5004147;28;20893;-64
2021/07/14 03:51:37;;;;;;;2.83;0.70;;;23.50;61.00;;;;;;5005506;28;20452;-65
2021/07/14 03:54:03;;;;;;;1.40;0.50;;;23.60;60.90;;;;;;5005519;28;20419;-64
2021/07/14 03:56:29;;;;;;;1.38;0.40;;;23.50;60.50;;;;;;5003473;28;20390;-65
2021/07/14 03:58:56;;;;;;;2.55;0.50;;;23.50;60.70;;;;;;5006737;28;20409;-64
2021/07/14 04:01:22;;;;;;;1.35;0.50;;;23.50;60.70;;;;;;5013587;28;20507;-62
2021/07/14 04:03:50;;;;;;;1.83;0.40;;;23.50;60.50;;;;;;5015264;28;20401;-64
2021/07/14 04:06:17;;;;;;;2.30;0.40;;;23.50;60.30;;;;;;5014722;28;20883;-65
2021/07/14 04:09:09;;;;;;;4.82;0.60;;;23.40;60.40;;;;;;5015130;28;20953;-65
2021/07/14 04:11:35;;;;;;;2.20;0.40;;;23.40;59.90;;;;;;5014906;28;20475;-65
2021/07/14 04:14:00;;;;;;;4.68;0.70;;;23.40;59.80;;;;;;5014945;28;20508;-65
2021/07/14 04:16:27;;;;;;;2.80;0.60;;;23.30;59.50;;;;;;5014378;28;20725;-65
2021/07/14 04:18:53;;;;;;;2.25;0.55;;;23.30;59.20;;;;;;5014831;28;20397;-65
2021/07/14 04:21:18;;;;;;;3.70;0.70;;;23.30;59.20;;;;;;5014755;28;20810;-65
2021/07/14 04:23:44;;;;;;;3.70;0.50;;;23.30;59.20;;;;;;5014792;28;20475;-65
2021/07/14 04:26:10;;;;;;;3.75;0.50;;;23.30;59.20;;;;;;5014628;28;20381;-65
2021/07/14 04:28:35;;;;;;;3.92;0.70;;;23.30;59.10;;;;;;5014157;28;20459;-65
2021/07/14 04:31:01;;;;;;;1.80;0.40;;;23.30;59.10;;;;;;5014694;28;20804;-65
2021/07/14 04:33:27;;;;;;;3.47;0.55;;;23.20;59.10;;;;;;5012846;28;20460;-65
2021/07/14 04:35:52;;;;;;;2.67;0.40;;;23.20;59.10;;;;;;5014442;28;20401;-65
2021/07/14 04:38:18;;;;;;;0.93;0.43;;;23.30;59.10;;;;;;5013982;28;20409;-65
2021/07/14 04:40:44;;;;;;;3.22;0.40;;;23.20;59.60;;;;;;5014277;28;20496;-65
2021/07/14 04:43:11;;;;;;;2.87;0.40;;;23.20;59.10;;;;;;5013856;28;20948;-65
2021/07/14 04:45:37;;;;;;;1.90;0.52;;;23.30;59.10;;;;;;5014412;28;20472;-66
2021/07/14 04:48:03;;;;;;;1.80;0.40;;;23.30;59.10;;;;;;5014343;28;20415;-65
2021/07/14 04:50:30;;;;;;;2.35;0.47;;;23.30;59.10;;;;;;5015000;28;20421;-66
2021/07/14 04:52:55;;;;;;;1.90;0.50;;;23.20;59.10;;;;;;5030506;28;20462;-65
2021/07/14 04:55:21;;;;;;;0.85;0.30;;;23.30;59.20;;;;;;5020592;28;20391;-65
2021/07/14 04:57:47;;;;;;;3.42;0.70;;;23.30;59.50;;;;;;5023862;28;20393;-65
2021/07/14 05:00:16;;;;;;;7.53;1.20;;;23.30;59.60;;;;;;5027511;28;20883;-65
2021/07/14 05:02:45;;;;;;;5.63;1.25;;;23.30;60.40;;;;;;5015752;28;20401;-64
2021/07/14 05:05:15;;;;;;;6.35;1.00;;;23.40;60.20;;;;;;5014709;28;20395;-65
2021/07/14 05:07:41;;;;;;;3.83;0.70;;;23.30;60.00;;;;;;4994146;28;20424;-65
2021/07/14 05:10:09;;;;;;;1.88;0.50;;;23.30;60.00;;;;;;4994511;28;20409;-65
2021/07/14 05:12:35;;;;;;;2.35;0.63;;;23.30;59.60;;;;;;4993594;28;20422;-65
2021/07/14 05:15:00;;;;;;;3.73;0.50;;;23.30;60.00;;;;;;4994268;28;20965;-65
2021/07/14 05:17:26;;;;;;;2.03;0.50;;;23.30;59.40;;;;;;4994074;28;20795;-65
2021/07/14 05:19:53;;;;;;;1.67;0.47;;;23.20;59.30;;;;;;4994090;28;20437;-65
2021/07/14 05:22:20;;;;;;;1.92;0.40;;;23.20;59.30;;;;;;4993883;28;20433;-65
2021/07/14 05:24:45;;;;;;;1.65;0.40;;;23.20;59.30;;;;;;4994170;28;20383;-65
2021/07/14 05:27:11;;;;;;;0.83;0.40;;;23.20;59.20;;;;;;4993989;28;20395;-65
2021/07/14 05:29:37;;;;;;;2.55;0.70;;;23.20;59.10;;;;;;4994027;28;20398;-65
2021/07/14 05:32:04;;;;;;;1.20;0.40;;;23.20;59.10;;;;;;4992747;28;20403;-64
2021/07/14 05:34:29;;;;;;;0.82;0.40;;;23.20;59.10;;;;;;4991759;28;20469;-65
2021/07/14 05:36:55;;;;;;;1.90;0.40;;;23.20;59.10;;;;;;4993890;28;20386;-65
2021/07/14 05:39:21;;;;;;;1.17;0.45;;;23.20;59.10;;;;;;4993603;28;20411;-65
2021/07/14 05:41:46;;;;;;;0.93;0.40;;;23.20;59.10;;;;;;4993840;28;20401;-65
2021/07/14 05:44:12;;;;;;;0.88;0.40;;;23.20;59.10;;;;;;4993746;28;20398;-65
2021/07/14 05:46:38;;;;;;;2.45;0.40;;;23.20;59.10;;;;;;4992011;28;20402;-66
2021/07/14 05:49:03;;;;;;;1.30;0.40;;;23.20;59.00;;;;;;4993676;28;20489;-65
2021/07/14 05:51:31;;;;;;;0.80;0.40;;;23.20;59.10;;;;;;4993914;28;20739;-65
2021/07/14 05:53:57;;;;;;;0.73;0.32;;;23.20;59.10;;;;;;4993306;28;20484;-65
2021/07/14 05:56:22;;;;;;;0.87;0.40;;;23.20;59.20;;;;;;4992364;28;20853;-66
2021/07/14 05:58:48;;;;;;;0.70;0.40;;;23.10;59.20;;;;;;4993490;28;20417;-65
2021/07/14 06:01:14;;;;;;;1.60;0.50;;;23.20;59.20;;;;;;4993326;28;20398;-65
2021/07/14 06:03:39;;;;;;;1.30;0.40;;;23.20;59.20;;;;;;4993398;28;20398;-65
2021/07/14 06:06:07;;;;;;;0.80;0.40;;;23.20;59.20;;;;;;4993412;28;20383;-65
2021/07/14 06:08:33;;;;;;;0.80;0.30;;;23.20;59.20;;;;;;4991529;28;20425;-65
2021/07/14 06:10:58;;;;;;;1.90;0.50;;;23.20;59.20;;;;;;4991997;28;20398;-65
2021/07/14 06:13:24;;;;;;;0.90;0.50;;;23.20;59.20;;;;;;4993041;28;20839;-65
2021/07/14 06:15:50;;;;;;;0.90;0.50;;;23.20;59.10;;;;;;4991886;28;20803;-65
2021/07/14 06:18:15;;;;;;;0.82;0.43;;;23.20;59.10;;;;;;4993021;28;20382;-65
2021/07/14 06:20:41;;;;;;;0.95;0.50;;;23.20;59.50;;;;;;4992549;28;20406;-65
2021/07/14 06:23:07;;;;;;;1.40;0.50;;;23.20;58.80;;;;;;4993223;28;20473;-65
2021/07/14 06:25:33;;;;;;;1.70;0.50;;;23.20;58.80;;;;;;4993008;28;20485;-65
2021/07/14 06:28:00;;;;;;;0.82;0.45;;;23.20;58.90;;;;;;4992900;28;20386;-65
2021/07/14 06:30:26;;;;;;;0.93;0.50;;;23.20;59.00;;;;;;4992445;28;20519;-64
2021/07/14 06:32:52;;;;;;;1.00;0.40;;;23.20;59.00;;;;;;4991495;28;20437;-65
2021/07/14 06:35:19;;;;;;;0.90;0.50;;;23.10;59.10;;;;;;4992762;28;20402;-65
2021/07/14 06:37:46;;;;;;;0.70;0.40;;;23.20;59.20;;;;;;4992884;28;20406;-64
2021/07/14 06:40:12;;;;;;;1.20;0.50;;;23.20;59.20;;;;;;4992507;28;20418;-65
2021/07/14 06:42:39;;;;;;;0.77;0.38;;;23.20;59.20;;;;;;4990971;28;20399;-65
2021/07/14 06:45:06;;;;;;;0.70;0.40;;;23.20;59.20;;;;;;4992606;28;20918;-64
2021/07/14 06:47:32;;;;;;;1.10;0.40;;;23.10;59.20;;;;;;4992603;28;20398;-65
2021/07/14 06:49:58;;;;;;;0.90;0.40;;;23.20;59.30;;;;;;4992520;28;20398;-65
2021/07/14 06:52:23;;;;;;;0.83;0.50;;;23.10;59.20;;;;;;4992244;28;20519;-65
2021/07/14 06:54:50;;;;;;;0.90;0.40;;;23.20;59.20;;;;;;4992444;28;20402;-65
2021/07/14 06:57:15;;;;;;;0.60;0.40;;;23.10;59.20;;;;;;4991188;28;20461;-65
2021/07/14 06:59:41;;;;;;;0.90;0.50;;;23.10;59.10;;;;;;4992501;28;20386;-65
2021/07/14 07:02:07;;;;;;;0.88;0.40;;;23.20;59.20;;;;;;4991219;28;20406;-65
2021/07/14 07:04:33;;;;;;;0.63;0.30;;;23.20;59.30;;;;;;4991948;28;20432;-65
2021/07/14 07:06:59;;;;;;;0.90;0.30;;;23.20;59.20;;;;;;4991170;28;20469;-65
2021/07/14 07:09:25;;;;;;;0.60;0.40;;;23.20;59.10;;;;;;4992295;28;20394;-64
2021/07/14 07:11:51;;;;;;;0.57;0.30;;;23.20;59.10;;;;;;4992379;28;20397;-65
2021/07/14 07:14:18;;;;;;;0.63;0.32;;;23.20;59.20;;;;;;4992109;28;20422;-65
2021/07/14 07:16:44;;;;;;;0.90;0.40;;;23.20;59.20;;;;;;4991793;28;20395;-65
2021/07/14 07:19:09;;;;;;;0.50;0.30;;;23.20;59.20;;;;;;4992168;28;20460;-65
2021/07/14 07:21:35;;;;;;;0.60;0.30;;;23.20;59.20;;;;;;4992228;28;20953;-65
2021/07/14 07:24:01;;;;;;;0.70;0.30;;;23.20;59.20;;;;;;4992190;28;20421;-65
2021/07/14 07:26:27;;;;;;;0.90;0.30;;;23.20;59.20;;;;;;4991655;28;20397;-64
2021/07/14 07:29:15;;;;;;;0.60;0.30;;;23.20;59.20;;;;;;4992208;28;20390;-65
2021/07/14 07:31:40;;;;;;;0.53;0.30;;;23.20;59.20;;;;;;4991946;28;20446;-65
2021/07/14 07:34:06;;;;;;;0.65;0.40;;;23.20;59.20;;;;;;4990758;28;20418;-65
2021/07/14 07:36:32;;;;;;;0.50;0.30;;;23.10;59.10;;;;;;4991422;28;20382;-65
2021/07/14 07:38:57;;;;;;;0.75;0.30;;;23.10;59.10;;;;;;4991909;28;20952;-65
2021/07/14 07:41:25;;;;;;;1.00;0.40;;;23.10;59.10;;;;;;4992077;28;20400;-65
2021/07/14 07:43:51;;;;;;;0.57;0.30;;;23.10;59.10;;;;;;4992011;28;20485;-65
2021/07/14 07:46:17;;;;;;;1.00;0.50;;;23.10;59.20;;;;;;4990680;28;20910;-65
2021/07/14 07:48:43;;;;;;;0.57;0.30;;;23.10;59.10;;;;;;4991511;28;20399;-65
2021/07/14 07:51:09;;;;;;;0.37;0.30;;;23.10;59.10;;;;;;4991950;28;20386;-65
2021/07/14 07:53:35;;;;;;;0.55;0.30;;;23.10;59.10;;;;;;4991504;28;20426;-65
2021/07/14 07:56:01;;;;;;;1.00;0.30;;;23.10;59.10;;;;;;4991525;28;20395;-65
2021/07/14 07:58:27;;;;;;;0.60;0.40;;;23.10;59.10;;;;;;4991672;28;20430;-65
2021/07/14 08:00:53;;;;;;;0.37;0.30;;;23.10;59.10;;;;;;4991901;28;20457;-65
2021/07/14 08:03:18;;;;;;;0.70;0.40;;;23.10;59.10;;;;;;4991886;28;21001;-65
2021/07/14 08:05:44;;;;;;;0.43;0.30;;;23.10;59.10;;;;;;4991916;28;20402;-65
2021/07/14 08:08:11;;;;;;;0.80;0.30;;;23.10;59.10;;;;;;4991668;28;20525;-65
2021/07/14 08:10:37;;;;;;;0.70;0.30;;;23.10;59.10;;;;;;4991360;28;20499;-65
2021/07/14 08:13:03;;;;;;;0.70;0.30;;;23.10;59.10;;;;;;4991725;28;20872;-65
2021/07/14 08:15:29;;;;;;;1.00;0.30;;;23.10;59.10;;;;;;4991764;28;20402;-65
2021/07/14 08:17:55;;;;;;;0.90;0.30;;;23.10;59.10;;;;;;4992171;28;20386;-65
2021/07/14 08:20:20;;;;;;;0.60;0.30;;;23.10;59.10;;;;;;4995260;28;20453;-65
2021/07/14 08:22:46;;;;;;;0.47;0.30;;;23.10;59.10;;;;;;4994823;28;20752;-65
2021/07/14 08:25:12;;;;;;;0.47;0.30;;;23.10;59.10;;;;;;4993945;28;20867;-65
2021/07/14 08:27:40;;;;;;;0.60;0.30;;;23.10;59.10;;;;;;4993867;28;20394;-65
2021/07/14 08:30:07;;;;;;;0.57;0.30;;;23.10;59.10;;;;;;4995231;28;20395;-65
2021/07/14 08:32:32;;;;;;;0.60;0.30;;;23.10;59.10;;;;;;4994597;28;20387;-65
2021/07/14 08:34:59;;;;;;;0.77;0.32;;;23.10;59.00;;;;;;4995085;28;20409;-65
2021/07/14 08:37:25;;;;;;;0.63;0.35;;;23.10;59.10;;;;;;4995016;28;20387;-65
2021/07/14 08:39:53;;;;;;;0.90;0.45;;;23.10;59.10;;;;;;4994526;28;20438;-65
2021/07/14 08:42:21;;;;;;;0.60;0.37;;;23.10;59.10;;;;;;4994879;28;20584;-66
2021/07/14 08:44:49;;;;;;;0.75;0.40;;;23.10;59.10;;;;;;4994292;28;20922;-65
2021/07/14 08:47:15;;;;;;;0.88;0.38;;;23.10;59.10;;;;;;4994739;28;20403;-65
2021/07/14 08:49:43;;;;;;;0.38;0.20;;;23.10;59.10;;;;;;4994780;28;20394;-65
2021/07/14 08:52:10;;;;;;;0.60;0.40;;;23.10;59.10;;;;;;4994928;28;20398;-65
2021/07/14 08:54:43;;;;;;;0.57;0.30;;;23.10;59.10;;;;;;4993330;28;20422;-65
2021/07/14 08:57:14;;;;;;;0.68;0.28;;;23.10;59.10;;;;;;4994562;28;20712;-65
2021/07/14 08:59:40;;;;;;;0.83;0.30;;;23.10;59.10;;;;;;4993294;28;20480;-65
2021/07/14 09:02:08;;;;;;;0.57;0.30;;;23.10;59.10;;;;;;4994635;28;20390;-65
2021/07/14 09:04:34;;;;;;;0.65;0.40;;;23.10;59.10;;;;;;4994082;28;20398;-65
2021/07/14 09:07:00;;;;;;;1.10;0.40;;;23.10;59.10;;;;;;4994539;28;20965;-65
2021/07/14 09:09:27;;;;;;;0.38;0.30;;;23.10;59.10;;;;;;4993123;28;20426;-65
2021/07/14 09:12:00;;;;;;;0.65;0.40;;;23.10;59.10;;;;;;4994406;28;20387;-65
2021/07/14 09:14:31;;;;;;;0.40;0.30;;;23.00;59.00;;;;;;4993990;28;20628;-65
2021/07/14 09:16:58;;;;;;;0.68;0.40;;;23.10;59.10;;;;;;4994482;28;20771;-65
2021/07/14 09:19:27;;;;;;;0.93;0.35;;;23.10;59.10;;;;;;4992873;28;20407;-65
2021/07/14 09:21:54;;;;;;;0.50;0.30;;;23.00;59.00;;;;;;4994284;28;20445;-65
2021/07/14 09:24:32;;;;;;;0.60;0.40;;;23.10;59.00;;;;;;4994071;28;20395;-65
2021/07/14 09:27:03;;;;;;;0.90;0.40;;;23.10;59.00;;;;;;4994012;28;20393;-65
2021/07/14 09:29:30;;;;;;;1.00;0.30;;;23.00;59.00;;;;;;4993935;28;20395;-65
2021/07/14 09:31:56;;;;;;;0.52;0.30;;;23.10;59.00;;;;;;4994039;28;20401;-65
2021/07/14 09:34:32;;;;;;;0.65;0.30;;;23.10;59.00;;;;;;4993834;28;20445;-65
2021/07/14 09:36:58;;;;;;;1.58;0.47;;;23.10;59.00;;;;;;4993960;28;20382;-65
2021/07/14 09:39:38;;;;;;;0.75;0.40;;;23.10;59.00;;;;;;4993672;28;20430;-65
2021/07/14 09:42:12;;;;;;;0.80;0.40;;;23.10;59.00;;;;;;4993861;28;20399;-65
2021/07/14 09:44:48;;;;;;;0.60;0.30;;;23.10;59.00;;;;;;4993230;28;20390;-65
2021/07/14 09:47:19;;;;;;;0.65;0.43;;;23.10;59.00;;;;;;4993680;28;20405;-65
2021/07/14 09:49:46;;;;;;;0.68;0.40;;;23.10;59.00;;;;;;4992441;28;20383;-65
2021/07/14 09:52:18;;;;;;;0.80;0.40;;;23.10;59.00;;;;;;4993666;28;20403;-65
2021/07/14 09:54:44;;;;;;;0.50;0.40;;;23.00;59.00;;;;;;4993033;28;20505;-65
2021/07/14 09:57:15;;;;;;;0.60;0.30;;;23.10;59.00;;;;;;4993455;28;20490;-65
2021/07/14 09:59:42;;;;;;;0.70;0.50;;;23.10;59.10;;;;;;4993572;28;20391;-65
2021/07/14 10:02:13;;;;;;;0.80;0.40;;;23.10;59.10;;;;;;4993600;28;20387;-65
2021/07/14 10:04:40;;;;;;;0.50;0.35;;;23.10;59.00;;;;;;4992884;28;20397;-64
2021/07/14 10:07:18;;;;;;;0.60;0.30;;;23.10;59.00;;;;;;4993340;28;20799;-65
2021/07/14 10:09:45;;;;;;;1.02;0.40;;;23.10;59.00;;;;;;4993315;28;20473;-65
2021/07/14 10:12:32;;;;;;;0.70;0.40;;;23.10;59.00;;;;;;4993313;28;20395;-65
2021/07/14 10:15:08;;;;;;;1.23;0.40;;;23.00;58.90;;;;;;4993265;28;20774;-65
2021/07/14 10:17:41;;;;;;;0.40;0.30;;;23.10;59.00;;;;;;4993161;28;20382;-65
2021/07/14 10:20:25;;;;;;;0.70;0.38;;;23.10;59.00;;;;;;4991801;28;20426;-65
2021/07/14 10:22:53;;;;;;;0.73;0.50;;;23.10;59.00;;;;;;4991363;28;20967;-65
2021/07/14 10:25:20;;;;;;;0.68;0.40;;;23.10;59.00;;;;;;4992919;28;20956;-65
2021/07/14 10:27:47;;;;;;;0.80;0.40;;;23.00;59.00;;;;;;4993007;28;20391;-64
2021/07/14 10:30:14;;;;;;;0.60;0.40;;;23.10;59.00;;;;;;4992862;28;20410;-65
2021/07/14 10:32:41;;;;;;;0.70;0.40;;;23.10;58.90;;;;;;4991274;28;20407;-65
2021/07/14 10:35:11;;;;;;;0.70;0.32;;;23.00;59.00;;;;;;4992834;28;20416;-66
2021/07/14 10:37:43;;;;;;;0.90;0.43;;;23.10;59.00;;;;;;4992845;28;20395;-65
2021/07/14 10:40:10;;;;;;;0.65;0.50;;;23.10;59.00;;;;;;4992480;28;20445;-65
2021/07/14 10:42:36;;;;;;;3.10;0.50;;;23.00;58.90;;;;;;4991907;28;20391;-65
2021/07/14 10:45:05;;;;;;;0.73;0.40;;;23.00;59.00;;;;;;4992697;28;20406;-65
2021/07/14 10:47:31;;;;;;;0.60;0.40;;;23.00;58.90;;;;;;4992672;28;20433;-65
2021/07/14 10:49:57;;;;;;;0.70;0.40;;;23.10;58.90;;;;;;4992702;28;20426;-65
2021/07/14 10:52:26;;;;;;;0.60;0.40;;;23.10;58.90;;;;;;4992574;28;20437;-65
2021/07/14 10:54:52;;;;;;;0.70;0.30;;;23.00;58.90;;;;;;4991996;28;20422;-65
2021/07/14 10:57:20;;;;;;;0.98;0.50;;;23.00;58.90;;;;;;4992387;28;20875;-65
2021/07/14 10:59:47;;;;;;;0.60;0.40;;;23.00;59.00;;;;;;4992477;28;20411;-65
2021/07/14 11:02:16;;;;;;;0.85;0.40;;;23.00;59.00;;;;;;4992369;28;20383;-65
2021/07/14 11:04:50;;;;;;;1.20;0.50;;;23.00;58.90;;;;;;4991982;28;20402;-65
2021/07/14 11:07:16;;;;;;;0.60;0.40;;;23.10;58.90;;;;;;4992323;28;20398;-65
2021/07/14 11:09:49;;;;;;;0.63;0.32;;;23.10;59.00;;;;;;4992302;28;20391;-65
2021/07/14 11:12:29;;;;;;;0.65;0.45;;;23.00;58.90;;;;;;4992291;28;20487;-65
2021/07/14 11:15:00;;;;;;;0.80;0.50;;;23.10;59.00;;;;;;4992066;28;20438;-65
2021/07/14 11:17:31;;;;;;;0.88;0.40;;;23.10;59.00;;;;;;4992178;28;20806;-65
2021/07/14 11:20:12;;;;;;;0.80;0.45;;;23.10;59.00;;;;;;4992287;28;20395;-65
2021/07/14 11:22:45;;;;;;;0.70;0.40;;;23.00;58.90;;;;;;4991826;28;20381;-65
2021/07/14 11:25:26;;;;;;;0.80;0.50;;;23.10;58.90;;;;;;4992396;28;20481;-65
2021/07/14 11:27:57;;;;;;;0.60;0.30;;;23.10;58.90;;;;;;4992176;28;20870;-65
2021/07/14 11:30:48;;;;;;;0.70;0.50;;;23.00;58.90;;;;;;4992039;28;20390;-65
2021/07/14 11:33:35;;;;;;;0.80;0.50;;;23.10;58.90;;;;;;4992314;28;20564;-65
2021/07/14 11:36:09;;;;;;;1.05;0.40;;;23.10;58.90;;;;;;4992233;28;20998;-64
2021/07/14 11:38:50;;;;;;;1.00;0.50;;;23.10;58.90;;;;;;4991907;28;20382;-65
2021/07/14 11:41:25;;;;;;;0.50;0.40;;;23.00;58.90;;;;;;4992014;28;20472;-64
2021/07/14 11:43:54;;;;;;;0.90;0.50;;;23.10;58.90;;;;;;4990732;28;20390;-65
2021/07/14 11:46:25;;;;;;;0.55;0.30;;;23.00;58.90;;;;;;4991908;28;20813;-66
2021/07/14 11:49:01;;;;;;;0.70;0.40;;;23.10;58.90;;;;;;4991751;28;20877;-65
2021/07/14 11:51:29;;;;;;;0.90;0.40;;;23.00;58.90;;;;;;5006698;28;20404;-65
2021/07/14 11:53:58;;;;;;;4.57;0.70;;;23.10;59.00;;;;;;5013533;28;20452;-64
2021/07/14 11:56:26;;;;;;;2.75;0.90;;;23.00;58.90;;;;;;5015401;28;20476;-65
2021/07/14 11:59:12;;;;;;;1.88;0.60;;;23.00;58.80;;;;;;5013549;28;21531;-64
2021/07/14 12:01:38;;;;;;;1.65;0.60;;;23.00;58.80;;;;;;5013138;28;20408;-68
2021/07/14 12:04:07;;;;;;;3.28;0.90;;;23.00;58.70;;;;;;5009167;28;20427;-65
2021/07/14 12:06:45;;;;;;;0.98;0.50;;;23.00;58.70;;;;;;5003842;28;20429;-65
2021/07/14 12:09:13;;;;;;;3.15;0.65;;;23.00;58.70;;;;;;5005992;28;20381;-65
2021/07/14 12:12:17;;;;;;;2.85;0.65;;;23.00;58.90;;;;;;5004790;28;20874;-66
2021/07/14 12:14:45;;;;;;;3.47;0.77;;;23.00;58.60;;;;;;5001318;28;20428;-67
2021/07/14 12:17:18;;;;;;;3.30;0.70;;;23.00;58.70;;;;;;5011527;28;20421;-64
2021/07/14 12:19:58;;;;;;;3.55;0.80;;;23.00;58.80;;;;;;5011351;28;20757;-64
2021/07/14 12:22:27;;;;;;;3.75;0.80;;;23.10;58.80;;;;;;4995689;28;20791;-68
2021/07/14 12:25:08;;;;;;;4.72;0.90;;;23.00;58.60;;;;;;5011313;28;20506;-65
2021/07/14 12:27:38;;;;;;;2.03;0.90;;;23.10;58.60;;;;;;5011292;28;20389;-65
2021/07/14 12:30:06;;;;;;;1.60;1.00;;;23.10;58.50;;;;;;5010944;28;20482;-65
2021/07/14 12:32:33;;;;;;;1.67;1.08;;;23.10;58.50;;;;;;5010997;28;20397;-66
2021/07/14 12:35:00;;;;;;;1.60;0.90;;;23.10;58.30;;;;;;5004903;28;20417;-64
2021/07/14 12:37:26;;;;;;;1.85;0.80;;;23.10;58.10;;;;;;5001631;28;20464;-64
2021/07/14 12:39:52;;;;;;;1.45;1.00;;;23.10;58.40;;;;;;5002085;28;20514;-65
2021/07/14 12:42:22;;;;;;;2.40;1.00;;;23.00;58.20;;;;;;5001699;28;20493;-65
2021/07/14 12:44:50;;;;;;;1.95;0.93;;;23.10;58.30;;;;;;5004524;28;20410;-66
2021/07/14 12:47:23;;;;;;;1.90;0.90;;;23.00;58.30;;;;;;5003721;28;20945;-65
2021/07/14 12:49:52;;;;;;;1.73;1.00;;;23.10;58.50;;;;;;5000031;28;20402;-67
2021/07/14 12:52:21;;;;;;;2.22;0.80;;;23.10;58.30;;;;;;5003397;28;20422;-66
2021/07/14 12:54:56;;;;;;;2.38;1.13;;;23.10;58.90;;;;;;5002520;28;20920;-66
2021/07/14 12:57:31;;;;;;;3.60;1.13;;;23.10;58.40;;;;;;4997488;28;20680;-65
2021/07/14 13:00:06;;;;;;;2.60;1.00;;;23.10;58.40;;;;;;4995848;28;20440;-65
2021/07/14 13:02:56;;;;;;;2.20;1.20;;;23.10;58.50;;;;;;5001471;28;20389;-64
2021/07/14 13:05:23;;;;;;;1.90;1.10;;;23.00;58.40;;;;;;5004055;28;20892;-67